Time;durP1;ratioP1;P1;durP2;ratioP2;P2;SDS_P1;SDS_P2;PMS_P1;PMS_P2;Temp;Humidity;BMP_temperature;BMP_pressure;BME280_temperature;BME280_humidity;BME280_pressure;Samples;Min_cycle;Max_cycle;Signal;HPM_P1;HPM_P2
2022/05/21 00:00:37;;;;;;;1999.90;697.33;;;;;;;;;;6309301;22;20802;-89
2022/05/21 00:03:03;;;;;;;1999.90;701.58;;;;;;;;;;6336071;22;20344;-90
2022/05/21 00:05:31;;;;;;;1999.90;694.92;;;;;;;;;;6336106;22;20838;-86
2022/05/21 00:07:57;;;;;;;1999.90;693.05;;;;;;;;;;6337898;22;20441;-87
2022/05/21 00:10:24;;;;;;;1999.90;690.93;;;;;;;;;;6335615;22;20381;-88
2022/05/21 00:12:50;;;;;;;1999.90;696.70;;;;;;;;;;6336368;22;20673;-89
2022/05/21 00:15:17;;;;;;;1999.90;700.80;;;;;;;;;;6336410;22;20353;-88
2022/05/21 00:17:43;;;;;;;1999.90;696.40;;;;;;;;;;6308435;22;20344;-87
2022/05/21 00:20:47;;;;;;;1999.90;688.65;;;;;;;;;;6334540;22;20345;-88
2022/05/21 00:22:56;;;;;;;1999.90;696.75;;;;;;;;;;6335315;22;20881;-88
2022/05/21 00:25:22;;;;;;;1999.90;700.97;;;;;;;;;;6334453;22;20373;-86
2022/05/21 00:27:48;;;;;;;1999.90;697.63;;;;;;;;;;6334622;22;20338;-87
2022/05/21 00:30:14;;;;;;;1999.90;695.67;;;;;;;;;;6334515;22;20398;-86
2022/05/21 00:32:40;;;;;;;1999.90;696.50;;;;;;;;;;6306747;22;20433;-86
2022/05/21 00:35:07;;;;;;;1999.90;699.67;;;;;;;;;;6333860;22;20357;-89
2022/05/21 00:37:33;;;;;;;1999.90;696.93;;;;;;;;;;6334353;22;20334;-88
2022/05/21 00:39:59;;;;;;;1999.90;687.67;;;;;;;;;;6335451;22;20360;-88
2022/05/21 00:42:25;;;;;;;1999.90;700.53;;;;;;;;;;6334226;22;20337;-87
2022/05/21 00:44:51;;;;;;;1999.90;701.45;;;;;;;;;;6333785;22;20407;-87
2022/05/21 00:47:17;;;;;;;1999.90;698.80;;;;;;;;;;6333511;22;20377;-88
2022/05/21 00:49:44;;;;;;;1999.90;699.90;;;;;;;;;;6334192;22;20340;-87
2022/05/21 00:52:17;;;;;;;1999.90;704.25;;;;;;;;;;6334124;22;20385;-91
2022/05/21 00:54:48;;;;;;;1999.90;701.63;;;;;;;;;;6334121;22;20345;-89
2022/05/21 00:57:24;;;;;;;1999.90;701.55;;;;;;;;;;6334657;22;20720;-89
2022/05/21 00:59:52;;;;;;;1999.90;697.95;;;;;;;;;;6334362;22;20353;-88
2022/05/21 01:02:23;;;;;;;1999.90;698.58;;;;;;;;;;6334021;22;20337;-88
2022/05/21 01:04:50;;;;;;;1999.90;696.63;;;;;;;;;;6333260;22;20380;-87
2022/05/21 01:07:16;;;;;;;1999.90;691.75;;;;;;;;;;6334221;22;20522;-88
2022/05/21 01:09:46;;;;;;;1999.90;697.33;;;;;;;;;;6342427;22;20395;-85
2022/05/21 01:12:12;;;;;;;1999.90;693.75;;;;;;;;;;6348747;22;20364;-85
2022/05/21 01:14:38;;;;;;;1999.90;696.22;;;;;;;;;;6351157;22;20743;-86
2022/05/21 01:17:05;;;;;;;1999.90;705.25;;;;;;;;;;6319544;22;20357;-87
2022/05/21 01:19:31;;;;;;;1999.90;703.78;;;;;;;;;;6311161;22;20349;-88
2022/05/21 01:21:58;;;;;;;1999.90;695.40;;;;;;;;;;6306209;22;20674;-88
2022/05/21 01:24:24;;;;;;;1999.90;691.55;;;;;;;;;;6333752;22;20360;-89
2022/05/21 01:26:51;;;;;;;1999.90;697.25;;;;;;;;;;6333497;22;20357;-88
2022/05/21 01:29:22;;;;;;;1999.90;703.42;;;;;;;;;;6332999;22;20367;-88
2022/05/21 01:31:52;;;;;;;1999.90;706.00;;;;;;;;;;6332622;22;20352;-89
2022/05/21 01:34:19;;;;;;;1999.90;703.15;;;;;;;;;;6333235;22;20341;-87
2022/05/21 01:36:46;;;;;;;1999.90;707.83;;;;;;;;;;6333207;22;20356;-86
2022/05/21 01:39:12;;;;;;;1999.90;702.40;;;;;;;;;;6333480;22;20801;-86
2022/05/21 01:41:41;;;;;;;1999.90;699.50;;;;;;;;;;6333267;22;20349;-87
2022/05/21 01:47:06;;;;;;;1999.90;698.67;;;;;;;;;;6263981;22;20353;-88
2022/05/21 01:49:32;;;;;;;1999.90;699.90;;;;;;;;;;6333999;22;20424;-89
2022/05/21 01:51:58;;;;;;;1999.90;702.72;;;;;;;;;;6333138;22;20833;-88
2022/05/21 01:54:24;;;;;;;1999.90;702.85;;;;;;;;;;6332717;22;20349;-88
2022/05/21 01:56:50;;;;;;;1999.90;700.33;;;;;;;;;;6332615;22;20440;-86
2022/05/21 01:59:16;;;;;;;1999.90;701.58;;;;;;;;;;6332948;22;20874;-87
2022/05/21 02:01:44;;;;;;;1999.90;705.28;;;;;;;;;;6332889;22;20365;-87
2022/05/21 02:04:10;;;;;;;1999.90;698.78;;;;;;;;;;6333113;22;20379;-86
2022/05/21 02:06:36;;;;;;;1999.90;700.22;;;;;;;;;;6333630;22;20349;-85
2022/05/21 02:09:02;;;;;;;1999.90;702.70;;;;;;;;;;6333650;22;20337;-87
2022/05/21 02:11:28;;;;;;;1999.90;709.05;;;;;;;;;;6332961;22;20341;-87
2022/05/21 02:13:54;;;;;;;1999.90;704.43;;;;;;;;;;6305650;22;20345;-87
2022/05/21 02:16:20;;;;;;;1999.90;707.17;;;;;;;;;;6305142;22;20392;-87
2022/05/21 02:18:46;;;;;;;1999.90;708.70;;;;;;;;;;6332727;22;20844;-87
2022/05/21 02:21:12;;;;;;;1999.90;696.27;;;;;;;;;;6305121;22;20840;-87
2022/05/21 02:23:39;;;;;;;1999.90;703.10;;;;;;;;;;6332759;22;20333;-89
2022/05/21 02:26:05;;;;;;;1999.90;704.97;;;;;;;;;;6333828;22;20448;-87
2022/05/21 02:28:31;;;;;;;1999.90;708.43;;;;;;;;;;6332940;22;20341;-87
2022/05/21 02:30:57;;;;;;;1999.90;706.03;;;;;;;;;;6332904;22;20625;-87
2022/05/21 02:33:23;;;;;;;1999.90;705.25;;;;;;;;;;6332843;22;20458;-87
2022/05/21 02:35:49;;;;;;;1999.90;700.42;;;;;;;;;;6332607;22;20348;-86
2022/05/21 02:41:00;;;;;;;1999.90;700.25;;;;;;;;;;6332674;22;20404;-87
2022/05/21 02:43:28;;;;;;;1999.90;699.10;;;;;;;;;;6332371;22;20368;-87
2022/05/21 02:45:54;;;;;;;1999.90;700.65;;;;;;;;;;6332382;22;20373;-87
2022/05/21 02:48:20;;;;;;;1999.90;702.00;;;;;;;;;;6304543;22;20441;-86
2022/05/21 02:50:46;;;;;;;1999.90;698.75;;;;;;;;;;6332200;22;20341;-86
2022/05/21 02:53:19;;;;;;;1999.90;702.00;;;;;;;;;;6332110;22;20336;-89
2022/05/21 02:55:46;;;;;;;1999.90;698.33;;;;;;;;;;6332417;22;20349;-86
2022/05/21 02:58:12;;;;;;;1999.90;699.25;;;;;;;;;;6332680;22;20415;-85
2022/05/21 03:00:39;;;;;;;1999.90;691.78;;;;;;;;;;6332626;22;20349;-87
2022/05/21 03:03:05;;;;;;;1999.90;699.55;;;;;;;;;;6334012;22;20344;-85
2022/05/21 03:05:31;;;;;;;1999.90;700.63;;;;;;;;;;6332479;22;20368;-88
2022/05/21 03:07:57;;;;;;;1999.90;701.58;;;;;;;;;;6333182;22;20341;-87
2022/05/21 03:10:24;;;;;;;1999.90;705.15;;;;;;;;;;6332674;22;20349;-86
2022/05/21 03:12:50;;;;;;;1999.90;697.58;;;;;;;;;;6332916;22;20340;-86
2022/05/21 03:15:17;;;;;;;1999.90;704.10;;;;;;;;;;6332344;22;20686;-88
2022/05/21 03:17:43;;;;;;;1999.90;701.38;;;;;;;;;;6332601;22;20341;-89
2022/05/21 03:20:13;;;;;;;1999.90;700.80;;;;;;;;;;6332350;22;20345;-85
2022/05/21 03:22:39;;;;;;;1999.90;701.05;;;;;;;;;;6332402;22;20390;-85
2022/05/21 03:25:05;;;;;;;1999.90;699.30;;;;;;;;;;6332753;22;20753;-87
2022/05/21 03:27:31;;;;;;;1999.90;699.38;;;;;;;;;;6332230;22;20349;-88
2022/05/21 03:29:57;;;;;;;1999.90;690.87;;;;;;;;;;6331807;22;20357;-87
2022/05/21 03:32:23;;;;;;;1999.90;695.45;;;;;;;;;;6332501;22;20370;-87
2022/05/21 03:34:49;;;;;;;1999.90;690.97;;;;;;;;;;6304106;22;20440;-89
2022/05/21 03:37:15;;;;;;;1999.90;691.75;;;;;;;;;;6332663;22;20400;-86
2022/05/21 03:39:41;;;;;;;1999.90;686.58;;;;;;;;;;6332536;22;20360;-87
2022/05/21 03:42:09;;;;;;;1999.90;688.05;;;;;;;;;;6333678;22;20458;-89
2022/05/21 03:44:35;;;;;;;1999.90;686.65;;;;;;;;;;6333562;22;20357;-87
2022/05/21 03:47:02;;;;;;;1999.90;693.67;;;;;;;;;;6334990;22;20341;-85
2022/05/21 03:49:28;;;;;;;1999.90;688.50;;;;;;;;;;6318594;22;20425;-86
2022/05/21 03:51:54;;;;;;;1999.90;695.27;;;;;;;;;;6345790;22;20333;-85
2022/05/21 03:54:21;;;;;;;1999.90;689.70;;;;;;;;;;6323775;22;20377;-88
2022/05/21 03:56:47;;;;;;;1999.90;692.97;;;;;;;;;;6306848;22;20350;-92
2022/05/21 03:59:13;;;;;;;1999.90;688.27;;;;;;;;;;6334409;22;20333;-88
2022/05/21 04:01:41;;;;;;;1999.90;681.60;;;;;;;;;;6335529;22;20337;-86
2022/05/21 04:04:07;;;;;;;1999.90;685.72;;;;;;;;;;6307777;22;20359;-86
2022/05/21 04:06:34;;;;;;;1999.90;677.78;;;;;;;;;;6333861;22;20397;-86
2022/05/21 04:09:02;;;;;;;1999.90;682.05;;;;;;;;;;6334005;22;20621;-89
2022/05/21 04:11:28;;;;;;;1999.90;675.90;;;;;;;;;;6306632;22;20357;-88
2022/05/21 04:13:54;;;;;;;1999.90;671.40;;;;;;;;;;6333883;22;20333;-88
2022/05/21 04:16:20;;;;;;;1999.90;677.55;;;;;;;;;;6306222;22;20355;-86
2022/05/21 04:18:46;;;;;;;1999.90;673.67;;;;;;;;;;6306198;22;20348;-87
2022/05/21 04:21:12;;;;;;;1999.90;673.22;;;;;;;;;;6333108;22;20337;-88
2022/05/21 04:23:39;;;;;;;1999.90;676.17;;;;;;;;;;6334672;22;20412;-89
2022/05/21 04:26:05;;;;;;;1999.90;674.95;;;;;;;;;;6333727;22;20758;-87
2022/05/21 04:28:31;;;;;;;1999.90;671.90;;;;;;;;;;6333439;22;20610;-87
2022/05/21 04:30:57;;;;;;;1999.90;673.33;;;;;;;;;;6305735;22;20375;-87
2022/05/21 04:33:23;;;;;;;1999.90;668.07;;;;;;;;;;6333709;22;20333;-87
2022/05/21 04:38:34;;;;;;;1999.90;667.37;;;;;;;;;;6333228;22;20383;-86
2022/05/21 04:41:00;;;;;;;1999.90;657.80;;;;;;;;;;6333263;22;20431;-86
2022/05/21 04:43:26;;;;;;;1999.90;655.37;;;;;;;;;;6332890;22;20646;-86
2022/05/21 04:45:54;;;;;;;1999.90;653.83;;;;;;;;;;6305598;22;20849;-86
2022/05/21 04:48:20;;;;;;;1999.90;655.28;;;;;;;;;;6333165;22;20673;-87
2022/05/21 04:50:46;;;;;;;1999.90;651.30;;;;;;;;;;6333125;22;20352;-86
2022/05/21 04:53:12;;;;;;;1999.90;651.75;;;;;;;;;;6333246;22;20805;-86
2022/05/21 04:55:38;;;;;;;1999.90;649.80;;;;;;;;;;6333750;22;20724;-87
2022/05/21 04:58:06;;;;;;;1999.90;648.67;;;;;;;;;;6305049;22;20394;-85
2022/05/21 05:00:32;;;;;;;1999.90;645.15;;;;;;;;;;6305280;22;20360;-87
2022/05/21 05:02:58;;;;;;;1999.90;652.63;;;;;;;;;;6332716;22;20752;-86
2022/05/21 05:05:24;;;;;;;1999.90;647.92;;;;;;;;;;6332549;22;20390;-86
2022/05/21 05:07:50;;;;;;;1999.90;651.85;;;;;;;;;;6333002;22;20372;-86
2022/05/21 05:10:17;;;;;;;1999.90;652.97;;;;;;;;;;6332640;22;20699;-88
2022/05/21 05:12:43;;;;;;;1999.90;644.50;;;;;;;;;;6334007;22;20344;-86
2022/05/21 05:15:09;;;;;;;1999.90;644.25;;;;;;;;;;6334285;22;20371;-89
2022/05/21 05:17:35;;;;;;;1999.90;642.33;;;;;;;;;;6333370;22;20836;-87
2022/05/21 05:20:01;;;;;;;1999.90;646.25;;;;;;;;;;6333153;22;20345;-86
2022/05/21 05:22:27;;;;;;;1999.90;648.60;;;;;;;;;;6332988;22;20333;-88
2022/05/21 05:24:53;;;;;;;1999.90;649.58;;;;;;;;;;6332683;22;20408;-87
2022/05/21 05:27:20;;;;;;;1999.90;652.22;;;;;;;;;;6304888;22;20360;-87
2022/05/21 05:29:46;;;;;;;1999.90;647.83;;;;;;;;;;6305427;22;20356;-87
2022/05/21 05:32:12;;;;;;;1999.90;641.45;;;;;;;;;;6334064;22;20670;-88
2022/05/21 05:34:38;;;;;;;1999.90;648.00;;;;;;;;;;6332636;22;20341;-87
2022/05/21 05:37:04;;;;;;;1999.90;647.10;;;;;;;;;;6332238;22;20707;-86
2022/05/21 05:39:31;;;;;;;1999.90;647.45;;;;;;;;;;6332490;22;20395;-87
2022/05/21 05:41:57;;;;;;;1999.90;648.38;;;;;;;;;;6304943;22;20373;-87
2022/05/21 05:44:24;;;;;;;1999.90;645.40;;;;;;;;;;6305052;22;20702;-88
2022/05/21 05:46:50;;;;;;;1999.90;654.23;;;;;;;;;;6332713;22;20341;-87
2022/05/21 05:49:16;;;;;;;1999.90;656.30;;;;;;;;;;6305374;22;20346;-87
2022/05/21 05:51:42;;;;;;;1999.90;659.97;;;;;;;;;;6305901;22;20697;-86
2022/05/21 05:54:08;;;;;;;1999.90;650.17;;;;;;;;;;6332416;22;20805;-88
2022/05/21 05:56:34;;;;;;;1999.90;666.38;;;;;;;;;;6333202;22;20345;-89
2022/05/21 06:01:45;;;;;;;1999.90;647.47;;;;;;;;;;6333558;22;20378;-89
2022/05/21 06:04:11;;;;;;;1999.90;659.22;;;;;;;;;;6333487;22;20341;-87
2022/05/21 06:06:38;;;;;;;1999.90;663.50;;;;;;;;;;6332218;22;20455;-87
2022/05/21 06:09:04;;;;;;;1999.90;653.90;;;;;;;;;;6332156;22;20841;-87
2022/05/21 06:11:37;;;;;;;1999.90;654.13;;;;;;;;;;6332202;22;20375;-88
2022/05/21 06:14:03;;;;;;;1999.90;660.78;;;;;;;;;;6332778;22;20368;-88
2022/05/21 06:16:29;;;;;;;1999.90;659.85;;;;;;;;;;6305179;22;20349;-88
2022/05/21 06:18:56;;;;;;;1999.90;651.97;;;;;;;;;;6332284;22;20883;-89
2022/05/21 06:21:22;;;;;;;1999.90;642.35;;;;;;;;;;6332636;22;20395;-87
2022/05/21 06:23:48;;;;;;;1998.25;686.83;;;;;;;;;;6335010;22;19899;-88
2022/05/21 06:26:14;;;;;;;1999.90;698.03;;;;;;;;;;6348938;22;20437;-86
2022/05/21 06:28:40;;;;;;;1999.90;691.75;;;;;;;;;;6318312;22;20349;-86
2022/05/21 06:31:06;;;;;;;1999.90;706.20;;;;;;;;;;6348764;22;20367;-84
2022/05/21 06:33:32;;;;;;;1999.90;707.20;;;;;;;;;;6337282;22;20418;-85
2022/05/21 06:36:17;;;;;;;1999.90;703.92;;;;;;;;;;6334964;22;20349;-86
2022/05/21 06:38:44;;;;;;;1999.90;707.50;;;;;;;;;;6332977;22;20334;-87
2022/05/21 06:41:10;;;;;;;1999.90;705.45;;;;;;;;;;6330867;22;20832;-91
2022/05/21 06:43:36;;;;;;;1999.90;697.55;;;;;;;;;;6304239;22;20349;-88
2022/05/21 06:46:03;;;;;;;1999.90;711.97;;;;;;;;;;6303624;22;20377;-87
2022/05/21 06:48:29;;;;;;;1999.90;708.63;;;;;;;;;;6331640;22;20337;-87
2022/05/21 06:50:55;;;;;;;1999.90;723.72;;;;;;;;;;6331927;22;20356;-87
2022/05/21 06:53:21;;;;;;;1999.90;707.23;;;;;;;;;;6332553;22;20336;-86
2022/05/21 06:55:47;;;;;;;1999.90;710.00;;;;;;;;;;6333382;22;20352;-90
2022/05/21 06:58:16;;;;;;;1999.90;710.30;;;;;;;;;;6305949;22;20353;-87
2022/05/21 07:00:43;;;;;;;1999.90;716.30;;;;;;;;;;6331849;22;20390;-88
2022/05/21 07:03:09;;;;;;;1999.90;713.75;;;;;;;;;;6303684;22;20836;-88
2022/05/21 07:08:22;;;;;;;1999.90;704.42;;;;;;;;;;6330963;22;20349;-87
2022/05/21 07:10:49;;;;;;;1999.90;703.78;;;;;;;;;;6304824;22;20666;-88
2022/05/21 07:13:15;;;;;;;1999.90;707.42;;;;;;;;;;6331632;22;20363;-87
2022/05/21 07:15:42;;;;;;;1999.90;712.75;;;;;;;;;;6303131;22;20352;-87
2022/05/21 07:18:08;;;;;;;1999.90;710.77;;;;;;;;;;6331599;22;20361;-87
2022/05/21 07:20:34;;;;;;;1999.90;713.13;;;;;;;;;;6332221;22;20341;-90
2022/05/21 07:23:00;;;;;;;1999.90;706.30;;;;;;;;;;6331630;22;20373;-86
2022/05/21 07:25:28;;;;;;;1999.90;702.73;;;;;;;;;;6332314;22;20705;-90
2022/05/21 07:27:54;;;;;;;1999.90;712.17;;;;;;;;;;6305401;22;20352;-88
2022/05/21 07:30:20;;;;;;;1999.90;705.67;;;;;;;;;;6334557;22;20345;-82
2022/05/21 07:32:48;;;;;;;1999.90;714.70;;;;;;;;;;6335820;22;20382;-87
2022/05/21 07:35:15;;;;;;;1999.90;714.05;;;;;;;;;;6335743;22;20730;-87
2022/05/21 07:37:41;;;;;;;1999.90;709.38;;;;;;;;;;6333491;22;20337;-89
2022/05/21 07:40:12;;;;;;;1999.90;712.28;;;;;;;;;;6306749;22;20341;-90
2022/05/21 07:42:38;;;;;;;1999.90;721.22;;;;;;;;;;6307265;22;20376;-87
2022/05/21 07:45:05;;;;;;;1999.90;715.97;;;;;;;;;;6334820;22;20368;-91
2022/05/21 07:47:31;;;;;;;1999.90;710.28;;;;;;;;;;6333979;22;20341;-87
2022/05/21 07:49:57;;;;;;;1999.90;703.83;;;;;;;;;;6331838;22;20383;-86
2022/05/21 07:52:24;;;;;;;1999.90;715.40;;;;;;;;;;6332976;22;20352;-86
2022/05/21 07:54:50;;;;;;;1999.90;712.63;;;;;;;;;;6331689;22;20702;-86
2022/05/21 07:57:16;;;;;;;1999.90;710.38;;;;;;;;;;6333945;22;20814;-87
2022/05/21 07:59:42;;;;;;;1999.90;704.08;;;;;;;;;;6323003;22;20815;-91
2022/05/21 08:02:13;;;;;;;1999.90;706.00;;;;;;;;;;6331218;22;20607;-85
2022/05/21 08:04:43;;;;;;;1999.90;715.30;;;;;;;;;;6331592;22;20443;-86
2022/05/21 08:07:09;;;;;;;1999.90;721.65;;;;;;;;;;6332127;22;20876;-88
2022/05/21 08:09:35;;;;;;;1999.90;725.25;;;;;;;;;;6304817;22;20883;-88
2022/05/21 08:12:01;;;;;;;1999.90;712.22;;;;;;;;;;6331868;22;20372;-88
2022/05/21 08:14:27;;;;;;;1999.90;709.53;;;;;;;;;;6333734;22;20331;-87
2022/05/21 08:16:53;;;;;;;1999.90;707.35;;;;;;;;;;6333520;22;20808;-86
2022/05/21 08:19:19;;;;;;;1999.90;704.05;;;;;;;;;;6333990;22;20809;-87
2022/05/21 08:21:45;;;;;;;1999.90;701.75;;;;;;;;;;6334823;22;20349;-87
2022/05/21 08:26:56;;;;;;;1999.90;704.20;;;;;;;;;;6332909;22;20678;-85
2022/05/21 08:29:26;;;;;;;1999.90;704.67;;;;;;;;;;6335732;22;20701;-87
2022/05/21 08:31:52;;;;;;;1999.90;709.95;;;;;;;;;;6333520;22;20351;-87
2022/05/21 08:34:19;;;;;;;1999.90;706.03;;;;;;;;;;6334247;22;20339;-87
2022/05/21 08:36:45;;;;;;;1999.90;707.83;;;;;;;;;;6334912;22;20014;-87
2022/05/21 08:39:11;;;;;;;1999.90;734.88;;;;;;;;;;6334309;22;20872;-86
2022/05/21 08:41:40;;;;;;;1999.90;745.72;;;;;;;;;;6332123;22;20424;-87
2022/05/21 08:44:06;;;;;;;1999.90;750.88;;;;;;;;;;6333261;22;20341;-86
2022/05/21 08:46:32;;;;;;;1999.90;741.75;;;;;;;;;;6332474;22;20452;-85
2022/05/21 08:49:02;;;;;;;1999.90;744.70;;;;;;;;;;6334144;22;20717;-86
2022/05/21 08:51:32;;;;;;;1999.90;749.45;;;;;;;;;;6305540;22;20348;-87
2022/05/21 08:53:59;;;;;;;1999.90;740.22;;;;;;;;;;6305728;22;20351;-87
2022/05/21 08:56:25;;;;;;;1999.90;739.13;;;;;;;;;;6333681;22;20337;-87
2022/05/21 08:59:12;;;;;;;1999.90;725.00;;;;;;;;;;6334725;22;20467;-89
2022/05/21 09:01:41;;;;;;;1999.90;739.00;;;;;;;;;;6307182;22;20376;-91
2022/05/21 09:04:10;;;;;;;1999.90;731.72;;;;;;;;;;6341411;22;20341;-90
2022/05/21 09:06:48;;;;;;;1999.90;735.25;;;;;;;;;;6360123;22;20356;-86
2022/05/21 09:09:14;;;;;;;1999.90;732.37;;;;;;;;;;6332360;22;20341;-85
2022/05/21 09:11:55;;;;;;;1999.90;723.15;;;;;;;;;;6321682;22;20353;-86
2022/05/21 09:14:27;;;;;;;1999.90;737.78;;;;;;;;;;6313795;22;20372;-90
2022/05/21 09:16:54;;;;;;;1999.90;734.45;;;;;;;;;;6334708;22;20345;-87
2022/05/21 09:19:22;;;;;;;1999.90;726.67;;;;;;;;;;6306942;22;20704;-85
2022/05/21 09:21:50;;;;;;;1999.90;728.50;;;;;;;;;;6336491;22;19998;-87
2022/05/21 09:24:35;;;;;;;1999.90;731.53;;;;;;;;;;6306811;22;20348;-92
2022/05/21 09:27:02;;;;;;;1999.90;732.67;;;;;;;;;;6337037;22;20365;-91
2022/05/21 09:29:33;;;;;;;1999.90;740.10;;;;;;;;;;6330852;22;20341;-86
2022/05/21 09:32:00;;;;;;;1999.90;732.90;;;;;;;;;;6330464;22;20332;-89
2022/05/21 09:34:35;;;;;;;1999.90;721.20;;;;;;;;;;6332659;22;20002;-91
2022/05/21 09:37:02;;;;;;;1999.90;733.30;;;;;;;;;;6331547;22;20369;-92
2022/05/21 09:39:38;;;;;;;1999.90;749.23;;;;;;;;;;6303786;22;20379;-93
2022/05/21 09:45:27;;;;;;;1999.90;721.33;;;;;;;;;;6331410;22;20423;-89
2022/05/21 09:48:02;;;;;;;1999.90;720.63;;;;;;;;;;6333958;22;20388;-87
2022/05/21 09:50:28;;;;;;;1999.90;734.53;;;;;;;;;;6331429;22;20715;-91
2022/05/21 09:52:54;;;;;;;1999.90;731.05;;;;;;;;;;6303743;22;20345;-90
2022/05/21 09:55:26;;;;;;;1999.90;727.15;;;;;;;;;;6332751;22;20345;-88
2022/05/21 09:57:52;;;;;;;1999.90;730.80;;;;;;;;;;6305138;22;20349;-91
2022/05/21 10:00:18;;;;;;;1999.90;733.65;;;;;;;;;;6331071;22;20379;-89
2022/05/21 10:02:46;;;;;;;1999.90;742.13;;;;;;;;;;6331566;22;20349;-90
2022/05/21 10:05:14;;;;;;;1999.90;737.87;;;;;;;;;;6332166;22;20361;-91
2022/05/21 10:11:00;;;;;;;1999.90;729.38;;;;;;;;;;6330681;22;20348;-87
2022/05/21 10:13:46;;;;;;;1999.90;717.08;;;;;;;;;;6288229;22;20002;-86
2022/05/21 10:16:31;;;;;;;1999.90;770.45;;;;;;;;;;6305243;22;20353;-91
2022/05/21 10:19:04;;;;;;;1999.90;747.72;;;;;;;;;;6304581;22;20674;-91
2022/05/21 10:21:36;;;;;;;1999.90;738.05;;;;;;;;;;6332456;22;20420;-87
2022/05/21 10:24:05;;;;;;;1999.90;755.05;;;;;;;;;;6331664;22;20364;-87
2022/05/21 10:26:50;;;;;;;1999.90;729.58;;;;;;;;;;6333578;22;20014;-87
2022/05/21 10:29:16;;;;;;;1999.90;749.90;;;;;;;;;;6331719;22;20351;-88
2022/05/21 10:31:42;;;;;;;1999.90;742.88;;;;;;;;;;6332256;22;20337;-87
2022/05/21 10:34:27;;;;;;;1999.90;749.67;;;;;;;;;;6331803;22;21170;-86
2022/05/21 10:36:53;;;;;;;1999.90;749.97;;;;;;;;;;6332698;22;20369;-88
2022/05/21 10:39:19;;;;;;;1999.90;736.00;;;;;;;;;;6333484;22;20002;-89
2022/05/21 10:41:48;;;;;;;1999.90;759.97;;;;;;;;;;6331917;22;20802;-89
2022/05/21 10:44:38;;;;;;;1999.90;751.55;;;;;;;;;;6333063;22;21058;-88
2022/05/21 10:47:05;;;;;;;1999.90;748.50;;;;;;;;;;6332126;22;20357;-86
2022/05/21 10:49:54;;;;;;;1999.90;751.55;;;;;;;;;;6333075;22;20360;-88
2022/05/21 10:52:23;;;;;;;1999.90;749.45;;;;;;;;;;6305667;22;20409;-91
2022/05/21 10:55:08;;;;;;;1999.90;760.15;;;;;;;;;;6334725;22;20353;-87
2022/05/21 10:57:46;;;;;;;1999.90;743.03;;;;;;;;;;6306136;22;20003;-90
2022/05/21 11:00:21;;;;;;;1999.90;755.47;;;;;;;;;;6331847;22;20349;-87
2022/05/21 11:02:53;;;;;;;1999.90;721.67;;;;;;;;;;6305374;22;20355;-88
2022/05/21 11:05:22;;;;;;;1999.90;748.55;;;;;;;;;;6331252;22;20372;-89
2022/05/21 11:08:00;;;;;;;1999.90;737.58;;;;;;;;;;6304040;22;20352;-87
2022/05/21 11:10:34;;;;;;;1999.90;715.53;;;;;;;;;;6306835;22;20003;-90
2022/05/21 11:13:00;;;;;;;1999.90;730.60;;;;;;;;;;6331342;22;20333;-88
2022/05/21 11:15:31;;;;;;;1999.90;719.08;;;;;;;;;;6307127;22;19940;-88
2022/05/21 11:18:01;;;;;;;1999.90;738.45;;;;;;;;;;6304326;22;20345;-87
2022/05/21 11:20:31;;;;;;;1999.90;736.72;;;;;;;;;;6331741;22;20371;-88
2022/05/21 11:23:01;;;;;;;1999.90;746.42;;;;;;;;;;6332330;22;20333;-89
2022/05/21 11:25:31;;;;;;;1999.90;734.30;;;;;;;;;;6332027;22;20380;-89
2022/05/21 11:28:18;;;;;;;1999.90;734.40;;;;;;;;;;6334638;22;19898;-89
2022/05/21 11:30:44;;;;;;;1999.90;738.90;;;;;;;;;;6304119;22;20356;-90
2022/05/21 11:38:51;;;;;;;1999.90;738.28;;;;;;;;;;6331157;22;20615;-88
2022/05/21 11:41:27;;;;;;;1999.90;722.58;;;;;;;;;;6332573;22;20013;-89
2022/05/21 11:44:55;;;;;;;1999.90;721.25;;;;;;;;;;6334666;22;20077;-92
2022/05/21 11:46:49;;;;;;;1999.90;733.17;;;;;;;;;;6353228;22;20402;-89
2022/05/21 11:49:30;;;;;;;1999.90;734.47;;;;;;;;;;6355410;22;20349;-89
2022/05/21 11:51:58;;;;;;;1999.90;724.70;;;;;;;;;;6328520;22;20014;-88
2022/05/21 11:54:47;;;;;;;1999.90;743.33;;;;;;;;;;6335013;22;20334;-87
2022/05/21 11:57:29;;;;;;;1999.90;732.95;;;;;;;;;;6261898;22;20369;-88
2022/05/21 11:59:55;;;;;;;1999.90;721.08;;;;;;;;;;6335443;22;20423;-90
2022/05/21 12:02:25;;;;;;;1999.90;738.33;;;;;;;;;;6332296;22;20334;-88
2022/05/21 12:05:12;;;;;;;1999.90;718.38;;;;;;;;;;6328914;22;20114;-89
2022/05/21 12:07:41;;;;;;;1999.90;734.58;;;;;;;;;;6330967;22;20877;-88
2022/05/21 12:10:19;;;;;;;1999.90;715.97;;;;;;;;;;6333701;22;19994;-90
2022/05/21 12:13:03;;;;;;;1999.90;733.63;;;;;;;;;;6331337;22;20349;-87
2022/05/21 12:15:38;;;;;;;1999.90;731.25;;;;;;;;;;6331325;22;20808;-88
2022/05/21 12:18:06;;;;;;;1999.90;720.47;;;;;;;;;;6334731;22;20371;-87
2022/05/21 12:20:51;;;;;;;1999.90;735.33;;;;;;;;;;6332595;22;20348;-88
2022/05/21 12:23:32;;;;;;;1999.90;739.85;;;;;;;;;;6332430;22;20337;-88
2022/05/21 12:26:08;;;;;;;1999.90;720.60;;;;;;;;;;6307267;22;20014;-87
2022/05/21 12:28:42;;;;;;;1999.90;740.63;;;;;;;;;;6305265;22;20333;-86
2022/05/21 12:31:09;;;;;;;1999.90;730.50;;;;;;;;;;6333260;22;20341;-85
2022/05/21 12:33:36;;;;;;;;;;;;;;;;;;6334775;22;19999;-86
2022/05/21 12:36:28;;;;;;;1999.90;715.50;;;;;;;;;;6334393;22;19907;-87
2022/05/21 12:38:55;;;;;;;1999.90;732.08;;;;;;;;;;6323516;22;20404;-87
2022/05/21 12:41:32;;;;;;;1999.90;735.05;;;;;;;;;;6327495;22;20387;-87
2022/05/21 12:43:59;;;;;;;1999.90;715.85;;;;;;;;;;6331762;22;20018;-86
2022/05/21 12:46:33;;;;;;;1999.90;722.33;;;;;;;;;;6303241;22;20461;-86
2022/05/21 12:49:03;;;;;;;1999.90;738.63;;;;;;;;;;6329701;22;20408;-85
2022/05/21 12:51:30;;;;;;;1999.90;730.70;;;;;;;;;;6331916;22;20007;-86
2022/05/21 12:53:56;;;;;;;1999.90;742.83;;;;;;;;;;6303605;22;20678;-87
2022/05/21 12:56:26;;;;;;;1999.90;738.28;;;;;;;;;;6331746;22;20078;-86
2022/05/21 12:59:14;;;;;;;1999.90;749.92;;;;;;;;;;6302329;22;20675;-87
2022/05/21 13:01:46;;;;;;;1999.90;736.63;;;;;;;;;;6303822;22;19999;-87
2022/05/21 13:04:27;;;;;;;1999.90;746.65;;;;;;;;;;6329790;22;20398;-88
2022/05/21 13:06:57;;;;;;;1999.90;727.47;;;;;;;;;;6331897;22;20446;-86
2022/05/21 13:09:24;;;;;;;1999.90;747.25;;;;;;;;;;6329541;22;20880;-87
2022/05/21 13:11:50;;;;;;;1999.90;728.20;;;;;;;;;;6331312;22;20111;-86
2022/05/21 13:14:28;;;;;;;1999.90;750.63;;;;;;;;;;6331851;22;20348;-88
2022/05/21 13:16:55;;;;;;;1999.90;747.03;;;;;;;;;;6333266;22;20345;-87
2022/05/21 13:19:44;;;;;;;1999.90;750.08;;;;;;;;;;6331462;22;20674;-87
2022/05/21 13:22:26;;;;;;;1999.90;730.58;;;;;;;;;;6313845;22;20005;-87
2022/05/21 13:25:10;;;;;;;1999.90;750.58;;;;;;;;;;6332259;22;20388;-89
2022/05/21 13:27:50;;;;;;;1999.90;747.17;;;;;;;;;;6304504;22;20360;-89
2022/05/21 13:30:18;;;;;;;1999.90;729.33;;;;;;;;;;6331758;22;20066;-88
2022/05/21 13:32:45;;;;;;;1999.90;744.97;;;;;;;;;;6304127;22;20353;-87
2022/05/21 13:35:27;;;;;;;1999.90;733.28;;;;;;;;;;6334099;22;20443;-87
2022/05/21 13:37:54;;;;;;;1999.90;740.75;;;;;;;;;;6332860;22;20344;-87
2022/05/21 13:40:20;;;;;;;1999.90;731.67;;;;;;;;;;6334331;22;20285;-88
2022/05/21 13:42:47;;;;;;;1999.90;735.88;;;;;;;;;;6333609;22;20010;-87
2022/05/21 13:45:18;;;;;;;1999.90;735.17;;;;;;;;;;6331186;22;20456;-86
2022/05/21 13:47:48;;;;;;;1999.90;729.90;;;;;;;;;;6306099;22;20010;-87
2022/05/21 13:50:14;;;;;;;1999.90;752.25;;;;;;;;;;6305039;22;20341;-88
2022/05/21 13:52:40;;;;;;;1999.90;735.97;;;;;;;;;;6305582;22;20003;-87
2022/05/21 13:55:07;;;;;;;1999.90;739.45;;;;;;;;;;6331804;22;20432;-86
2022/05/21 13:57:34;;;;;;;1999.90;729.15;;;;;;;;;;6306250;22;19999;-88
2022/05/21 14:00:04;;;;;;;1999.90;730.85;;;;;;;;;;6334011;22;19999;-87
2022/05/21 14:02:30;;;;;;;1999.90;742.75;;;;;;;;;;6333250;22;20862;-86
2022/05/21 14:04:56;;;;;;;1999.90;732.10;;;;;;;;;;6306846;22;20048;-86
2022/05/21 14:07:25;;;;;;;1999.90;755.60;;;;;;;;;;6332514;22;20361;-87
2022/05/21 14:09:54;;;;;;;1999.90;737.22;;;;;;;;;;6331833;22;20674;-88
2022/05/21 14:12:40;;;;;;;1999.90;728.85;;;;;;;;;;6333808;22;20003;-88
2022/05/21 14:15:19;;;;;;;1999.90;748.78;;;;;;;;;;6331493;22;20341;-89
2022/05/21 14:17:53;;;;;;;1999.90;737.58;;;;;;;;;;6305712;22;19898;-88
2022/05/21 14:20:20;;;;;;;1999.90;754.85;;;;;;;;;;6331974;22;20345;-88